createdAt,value
2024-02-18T00:04:29.501Z,14.67
2024-02-18T00:09:32.860Z,14.83
2024-02-18T00:14:37.572Z,14.47
2024-02-18T00:19:40.986Z,16.03
2024-02-18T00:24:44.366Z,15.60
2024-02-18T00:29:48.968Z,15.67
2024-02-18T00:34:52.249Z,15.33
2024-02-18T00:39:55.498Z,13.97
2024-02-18T00:45:00.261Z,13.73
2024-02-18T00:50:03.606Z,13.20
2024-02-18T00:55:08.342Z,14.07
2024-02-18T01:00:14.231Z,13.37
2024-02-18T01:05:17.403Z,14.17
2024-02-18T01:10:20.843Z,14.33
2024-02-18T01:15:25.483Z,14.37
2024-02-18T01:20:28.966Z,13.77
2024-02-18T01:25:32.638Z,13.80
2024-02-18T01:30:37.416Z,13.73
2024-02-18T01:35:40.856Z,14.00
2024-02-18T01:40:44.130Z,14.27
2024-02-18T01:45:49.317Z,13.90
2024-02-18T01:50:52.870Z,13.20
2024-02-18T01:55:57.251Z,12.77
2024-02-18T02:01:02.810Z,13.70
2024-02-18T02:06:08.016Z,12.43
2024-02-18T02:11:11.585Z,13.77
2024-02-18T02:16:16.775Z,13.23
2024-02-18T02:21:20.878Z,14.30
2024-02-18T02:26:26.430Z,14.73
2024-02-18T02:31:31.257Z,15.53
2024-02-18T02:36:34.606Z,14.87
2024-02-18T02:41:38.854Z,15.10
2024-02-18T02:46:43.550Z,15.23
2024-02-18T02:51:46.895Z,15.77
2024-02-18T02:56:50.344Z,16.80
2024-02-18T03:01:55.035Z,16.73
2024-02-18T03:06:58.453Z,17.13
2024-02-18T03:12:01.844Z,18.67
2024-02-18T03:17:06.653Z,21.70
2024-02-18T03:22:09.954Z,24.33
2024-02-18T03:27:13.458Z,23.73
2024-02-18T03:32:18.095Z,25.60
2024-02-18T03:37:21.334Z,26.57
2024-02-18T03:42:24.611Z,29.53
2024-02-18T03:47:29.302Z,30.37
2024-02-18T03:52:32.798Z,30.37
2024-02-18T03:57:36.075Z,28.77
2024-02-18T04:02:42.317Z,29.10
2024-02-18T04:07:45.535Z,29.17
2024-02-18T04:12:49.141Z,29.77
2024-02-18T04:17:55.286Z,29.33
2024-02-18T04:22:58.513Z,28.77
2024-02-18T04:28:02.916Z,29.40
2024-02-18T04:33:07.855Z,28.90
2024-02-18T04:38:11.120Z,29.00
2024-02-18T04:43:14.303Z,29.53
2024-02-18T04:48:18.976Z,30.27
2024-02-18T04:53:22.380Z,30.77
2024-02-18T04:58:25.721Z,31.50
2024-02-18T05:03:30.531Z,29.50
2024-02-18T05:08:34.146Z,29.23
2024-02-18T05:13:37.617Z,28.93
2024-02-18T05:18:42.760Z,28.10
2024-02-18T05:23:46.355Z,25.07
2024-02-18T05:28:49.605Z,25.90
2024-02-18T05:33:55.137Z,25.90
2024-02-18T05:38:58.633Z,25.57
2024-02-18T05:44:01.937Z,26.47
2024-02-18T05:49:07.069Z,24.30
2024-02-18T05:54:10.427Z,23.97
2024-02-18T05:59:13.736Z,23.40
2024-02-18T06:04:18.447Z,24.33
2024-02-18T06:09:21.909Z,23.17
2024-02-18T06:14:25.462Z,23.63
2024-02-18T06:19:30.402Z,22.03
2024-02-18T06:24:33.929Z,24.63
2024-02-18T06:29:38.603Z,24.47
2024-02-18T06:34:43.414Z,27.17
2024-02-18T06:39:46.938Z,30.67
2024-02-18T06:44:50.219Z,31.90
2024-02-18T06:49:55.221Z,35.00
2024-02-18T06:54:58.539Z,37.23
2024-02-18T07:00:01.710Z,36.57
2024-02-18T07:05:07.132Z,36.40
2024-02-18T07:10:10.507Z,38.50
2024-02-18T07:15:13.731Z,36.53
2024-02-18T07:20:18.545Z,40.90
2024-02-18T07:25:22.027Z,38.43
2024-02-18T07:30:25.324Z,37.30
2024-02-18T07:35:30.392Z,35.27
2024-02-18T07:40:33.700Z,33.67
2024-02-18T07:45:37.061Z,31.50
2024-02-18T07:50:42.286Z,30.57
2024-02-18T07:55:45.577Z,32.40
2024-02-18T08:00:49.280Z,30.23
2024-02-18T08:05:54.275Z,28.70
2024-02-18T08:10:57.570Z,27.53
2024-02-18T08:16:00.880Z,27.37
2024-02-18T08:21:05.744Z,27.03
2024-02-18T08:26:09.497Z,26.37
2024-02-18T08:31:13.223Z,26.10
2024-02-18T08:36:18.286Z,27.33
2024-02-18T08:41:22.172Z,25.57
2024-02-18T08:46:25.445Z,24.80
2024-02-18T08:51:30.345Z,24.63
2024-02-18T08:56:33.693Z,22.50
2024-02-18T09:01:37.060Z,23.00
2024-02-18T09:06:41.862Z,22.60
2024-02-18T09:11:45.262Z,22.10
2024-02-18T09:16:49.106Z,22.27
2024-02-18T09:21:53.795Z,24.10
2024-02-18T09:26:57.070Z,24.43
2024-02-18T09:32:00.546Z,22.47
2024-02-18T09:37:06.070Z,22.53
2024-02-18T09:42:10.919Z,23.57
2024-02-18T09:47:16.012Z,24.43
2024-02-18T09:52:22.050Z,24.07
2024-02-18T09:57:25.439Z,22.67
2024-02-18T10:02:29.690Z,21.47
2024-02-18T10:07:36.684Z,19.80
2024-02-18T10:12:41.408Z,19.23
2024-02-18T10:17:44.794Z,19.67
2024-02-18T10:22:49.892Z,20.57
2024-02-18T10:27:58.095Z,23.97
2024-02-18T10:33:01.459Z,22.20
2024-02-18T10:38:11.600Z,22.70
2024-02-18T10:43:20.540Z,22.90
2024-02-18T10:48:27.809Z,21.03
2024-02-18T10:53:36.446Z,18.57
2024-02-18T10:58:51.525Z,18.43
2024-02-18T11:04:01.082Z,18.63
2024-02-18T11:09:09.914Z,17.97
2024-02-18T11:14:15.247Z,16.23
2024-02-18T11:19:20.174Z,15.43
2024-02-18T11:24:26.205Z,15.27
2024-02-18T11:29:29.607Z,15.93
2024-02-18T11:34:33.182Z,14.50
2024-02-18T11:39:42.266Z,14.27
2024-02-18T11:44:46.394Z,13.40
2024-02-18T11:49:49.850Z,11.70
2024-02-18T11:54:54.493Z,11.70
2024-02-18T11:59:58.190Z,11.37
2024-02-18T12:05:02.393Z,10.07
2024-02-18T12:10:08.235Z,10.07
2024-02-18T12:15:11.643Z,9.37
2024-02-18T12:20:14.904Z,10.63
2024-02-18T12:25:22.052Z,10.20
2024-02-18T12:30:26.328Z,10.13
2024-02-18T12:35:29.728Z,10.43
2024-02-18T12:40:35.592Z,8.70
2024-02-18T12:45:45.018Z,8.10
2024-02-18T12:51:09.629Z,8.50
2024-02-18T12:56:16.604Z,9.10
2024-02-18T13:01:20.745Z,9.10
2024-02-18T13:06:24.340Z,9.63
2024-02-18T13:11:29.328Z,8.97
2024-02-18T13:16:32.697Z,9.60
2024-02-18T13:21:36.253Z,9.63
2024-02-18T13:26:40.829Z,9.10
2024-02-18T13:31:44.362Z,8.27
2024-02-18T13:36:50.973Z,8.50
2024-02-18T13:41:57.538Z,8.10
2024-02-18T13:47:02.503Z,7.60
2024-02-18T13:52:05.919Z,7.20
2024-02-18T13:57:10.476Z,7.30
2024-02-18T14:02:13.788Z,7.40
2024-02-18T14:07:20.900Z,6.50
2024-02-18T14:12:25.470Z,6.60
2024-02-18T14:17:28.707Z,6.27
2024-02-18T14:22:32.577Z,6.27
2024-02-18T14:27:37.349Z,6.20
2024-02-18T14:32:40.833Z,6.10
2024-02-18T14:37:44.257Z,6.30
2024-02-18T14:42:50.171Z,6.60
2024-02-18T14:47:53.991Z,6.57
2024-02-18T14:52:57.228Z,5.80
2024-02-18T14:58:01.927Z,4.60
2024-02-18T15:03:05.905Z,5.23
2024-02-18T15:08:09.215Z,4.10
2024-02-18T15:13:15.547Z,4.20
2024-02-18T15:18:19.102Z,4.67
2024-02-18T15:23:22.332Z,5.43
2024-02-18T15:28:26.855Z,5.43
2024-02-18T15:33:30.561Z,5.80
2024-02-18T15:38:33.716Z,6.07
2024-02-18T15:43:39.761Z,6.20
2024-02-18T15:48:43.089Z,6.47
2024-02-18T15:53:46.546Z,6.43
2024-02-18T15:58:51.420Z,7.27
2024-02-18T16:03:54.999Z,6.80
2024-02-18T16:08:58.120Z,8.20
2024-02-18T16:14:02.547Z,7.80
2024-02-18T16:19:06.185Z,7.87
2024-02-18T16:24:09.350Z,8.47
2024-02-18T16:29:13.918Z,9.00
2024-02-18T16:34:17.148Z,9.63
2024-02-18T16:39:20.420Z,9.23
2024-02-18T16:44:25.116Z,9.93
2024-02-18T16:49:28.969Z,9.70
2024-02-18T16:54:32.643Z,10.27
2024-02-18T16:59:39.598Z,10.43
2024-02-18T17:04:42.855Z,10.47
2024-02-18T17:09:46.123Z,11.63
2024-02-18T17:14:50.687Z,13.17
2024-02-18T17:19:54.125Z,11.90
2024-02-18T17:24:57.388Z,13.20
2024-02-18T17:30:02.102Z,13.60
2024-02-18T17:35:06.112Z,13.10
2024-02-18T17:40:12.206Z,13.40
2024-02-18T17:45:18.367Z,13.10
2024-02-18T17:50:21.816Z,13.23
2024-02-18T17:55:27.449Z,14.33
2024-02-18T18:00:32.274Z,13.57
2024-02-18T18:05:36.457Z,13.60
2024-02-18T18:10:40.011Z,13.33
2024-02-18T18:15:44.769Z,13.20
2024-02-18T18:20:48.125Z,13.07
2024-02-18T18:25:51.515Z,13.17
2024-02-18T18:30:56.446Z,13.20
2024-02-18T18:36:01.212Z,12.20
2024-02-18T18:41:05.165Z,11.33
2024-02-18T18:46:10.918Z,11.20
2024-02-18T18:51:14.308Z,11.00
2024-02-18T18:56:17.765Z,10.23
2024-02-18T19:01:22.448Z,10.30
2024-02-18T19:06:25.800Z,10.70
2024-02-18T19:11:29.185Z,10.03
2024-02-18T19:16:37.102Z,10.47
2024-02-18T19:21:41.668Z,10.17
2024-02-18T19:26:45.193Z,10.53
2024-02-18T19:31:52.061Z,10.30
2024-02-18T19:36:55.333Z,10.97
2024-02-18T19:41:58.573Z,10.97
2024-02-18T19:47:03.149Z,11.10
2024-02-18T19:52:06.488Z,10.47
2024-02-18T19:57:09.744Z,11.70
2024-02-18T20:02:14.383Z,11.90
2024-02-18T20:07:17.773Z,12.40
2024-02-18T20:12:21.003Z,12.13
2024-02-18T20:17:25.689Z,12.13
2024-02-18T20:22:28.982Z,12.17
2024-02-18T20:27:34.449Z,12.67
2024-02-18T20:32:39.155Z,12.77
2024-02-18T20:37:42.345Z,12.37
2024-02-18T20:42:50.848Z,10.90
2024-02-18T20:47:56.005Z,11.07
2024-02-18T20:52:59.866Z,10.80
2024-02-18T20:58:05.388Z,10.23
2024-02-18T21:03:10.818Z,9.50
2024-02-18T21:08:14.683Z,10.03
2024-02-18T21:13:18.156Z,3.40
2024-02-18T21:18:23.398Z,3.50
2024-02-18T21:23:26.990Z,4.23
2024-02-18T21:28:30.331Z,2.53
2024-02-18T21:33:35.228Z,1.60
2024-02-18T21:38:38.757Z,1.60
2024-02-18T21:43:42.348Z,1.43
2024-02-18T21:48:47.212Z,1.63
2024-02-18T21:53:50.704Z,1.30
2024-02-18T21:58:54.011Z,1.30
2024-02-18T22:03:58.818Z,1.07
2024-02-18T22:09:02.424Z,1.13
2024-02-18T22:14:05.665Z,1.40
2024-02-18T22:19:10.833Z,1.23
2024-02-18T22:24:14.191Z,1.20
2024-02-18T22:29:17.406Z,1.60
2024-02-18T22:34:22.109Z,2.73
2024-02-18T22:39:25.344Z,3.30
2024-02-18T22:44:28.680Z,3.30
2024-02-18T22:49:33.589Z,3.20
2024-02-18T22:54:37.022Z,4.00
2024-02-18T22:59:40.266Z,4.13
2024-02-18T23:04:44.815Z,4.00
2024-02-18T23:09:47.989Z,3.50
2024-02-18T23:14:51.445Z,3.10
2024-02-18T23:19:56.294Z,3.03
2024-02-18T23:24:59.932Z,2.80
2024-02-18T23:30:03.510Z,2.60
2024-02-18T23:35:11.176Z,2.40
2024-02-18T23:40:15.556Z,2.40
2024-02-18T23:45:18.945Z,2.30
2024-02-18T23:50:24.710Z,2.10
2024-02-18T23:55:28.072Z,1.60
